Chesterland, Ohio
Current Conditions -  °F | °C
As of 6:45 PM on Wednesday 26 Nov 2014 (Local Time) from KCGF Reporting Station
Broken Clouds Broken Clouds  
Wind Chill: 32°   Ceiling: 3500
Heat Index: 36°   Visibility: 10mi
Dew Point: 30°   Wind: 5mph
Humidity: 81%   Direction: 320°NW
Pressure: 30.04"   Gusts: NA
Location:  41.52°N, 81.34°W
Report Text: KCGF 262345Z 32004KT 10SM BKN035 BKN060 02/M01 A3004
Loading
Personal Weather Stations






























Interactive Weather Map New forecast layout! Learn more

10-Day Weather Forecast

Advertisements
Track Severe Weather on mobile